Time;durP1;ratioP1;P1;durP2;ratioP2;P2;SDS_P1;SDS_P2;PMS_P1;PMS_P2;Temp;Humidity;BMP_temperature;BMP_pressure;BME280_temperature;BME280_humidity;BME280_pressure;Samples;Min_cycle;Max_cycle;Signal;HPM_P1;HPM_P2
2022/06/18 00:00:38;;;;;;;;;11.50;10.50;;;;;21.57;50.13;99438.13;6261355;27;96528;-74
2022/06/18 00:03:41;;;;;;;;;9.60;9.60;;;;;21.55;50.37;99435.66;6247487;27;96325;-74
2022/06/18 00:06:50;;;;;;;;;13.40;11.00;;;;;21.36;50.15;99431.88;6261575;27;97440;-75
2022/06/18 00:10:01;;;;;;;;;10.60;9.60;;;;;21.43;50.79;99437.91;6261905;27;96876;-76
2022/06/18 00:13:40;;;;;;;;;11.00;10.00;;;;;21.42;50.61;99427.19;6242341;27;98038;-72
2022/06/18 00:16:45;;;;;;;;;8.40;8.40;;;;;21.43;50.30;99428.84;6231975;27;96533;-73
2022/06/18 00:19:49;;;;;;;;;10.00;9.00;;;;;21.37;50.37;99427.22;6211982;27;97004;-72
2022/06/18 00:22:58;;;;;;;;;10.00;9.00;;;;;21.20;50.14;99413.84;6243027;27;97389;-74
2022/06/18 00:26:01;;;;;;;;;9.50;9.50;;;;;21.27;50.79;99429.97;6245699;27;97124;-72
2022/06/18 00:29:06;;;;;;;;;10.00;10.00;;;;;21.23;50.58;99426.97;6230741;27;97320;-74
2022/06/18 00:32:11;;;;;;;;;11.00;10.40;;;;;21.19;50.60;99423.16;6228343;27;97799;-74
2022/06/18 00:35:15;;;;;;;;;11.00;10.00;;;;;21.20;51.09;99426.72;6265400;27;97429;-74
2022/06/18 00:38:25;;;;;;;;;9.00;8.25;;;;;21.18;50.90;99422.31;6230509;27;98413;-71
2022/06/18 00:41:28;;;;;;;;;10.00;10.00;;;;;21.16;50.67;99420.94;6265780;27;97972;-73
2022/06/18 00:44:35;;;;;;;;;10.00;9.80;;;;;21.15;51.22;99420.16;6247250;27;96661;-74
2022/06/18 00:47:51;;;;;;;;;9.60;9.00;;;;;21.09;51.34;99423.97;6246320;27;98259;-74
2022/06/18 00:50:58;;;;;;;;;9.40;9.40;;;;;21.08;51.13;99416.84;6247412;27;96503;-73
2022/06/18 00:54:07;;;;;;;;;9.00;9.00;;;;;21.05;51.28;99419.31;6230384;27;97609;-74
2022/06/18 00:57:31;;;;;;;;;8.00;8.00;;;;;21.02;51.89;99417.09;6257512;27;98006;-74
2022/06/18 01:00:38;;;;;;;;;9.50;9.00;;;;;21.02;51.68;99420.69;6233245;28;96849;-74
2022/06/18 01:03:46;;;;;;;;;8.60;8.00;;;;;20.98;52.22;99421.50;6240182;28;97438;-73
2022/06/18 01:06:51;;;;;;;;;12.00;11.40;;;;;20.87;52.43;99414.38;6238729;28;97234;-74
2022/06/18 01:09:55;;;;;;;;;10.00;10.00;;;;;20.77;52.60;99409.75;6238525;28;98971;-74
2022/06/18 01:13:03;;;;;;;;;10.60;10.00;;;;;20.85;53.06;99427.56;6238178;28;96473;-73
2022/06/18 01:16:12;;;;;;;;;9.80;8.80;;;;;20.77;52.94;99428.94;6235712;28;96678;-74
2022/06/18 01:19:31;;;;;;;;;11.40;10.00;;;;;20.67;53.17;99413.31;6238559;28;97430;-75
2022/06/18 01:22:43;;;;;;;;;9.00;9.00;;;;;20.65;53.43;99422.91;6237326;28;97468;-75
2022/06/18 01:25:49;;;;;;;;;12.00;11.00;;;;;20.60;53.90;99420.19;6216961;28;97772;-73
2022/06/18 01:28:53;;;;;;;;;10.00;9.00;;;;;20.54;54.13;99413.88;6237615;28;96793;-76
2022/06/18 01:31:58;;;;;;;;;12.00;11.00;;;;;20.49;54.18;99415.78;6238046;28;96588;-73
2022/06/18 01:35:04;;;;;;;;;10.00;10.00;;;;;20.44;54.44;99411.13;6237961;28;97253;-74
2022/06/18 01:38:14;;;;;;;;;11.00;10.40;;;;;20.41;54.53;99405.38;6238243;28;98148;-74
2022/06/18 01:44:51;;;;;;;;;9.40;9.40;;;;;20.26;54.65;99397.94;6195010;28;98673;-73
2022/06/18 01:48:07;;;;;;;;;10.00;10.00;;;;;20.24;54.44;99394.66;6236213;28;98086;-73
2022/06/18 01:51:15;;;;;;;;;11.00;10.60;;;;;20.19;54.79;99397.38;6237750;28;96598;-75
2022/06/18 01:54:32;;;;;;;;;8.60;8.60;;;;;20.15;55.07;99393.53;6213698;28;98979;-75
2022/06/18 01:57:46;;;;;;;;;13.60;12.00;;;;;20.06;55.07;99392.44;6238006;28;96424;-74
2022/06/18 02:00:55;;;;;;;;;9.00;9.00;;;;;20.04;55.19;99400.09;6224305;28;96861;-75
2022/06/18 02:04:01;;;;;;;;;9.00;8.20;;;;;20.00;55.01;99396.25;6246861;27;97427;-76
2022/06/18 02:07:07;;;;;;;;;9.60;9.00;;;;;19.97;55.05;99391.34;6237248;28;97181;-75
2022/06/18 02:10:16;;;;;;;;;9.40;9.00;;;;;19.95;55.39;99394.31;6237456;28;96527;-75
2022/06/18 02:13:25;;;;;;;;;9.00;9.00;;;;;19.91;55.07;99387.75;6237501;28;97539;-73
2022/06/18 02:16:35;;;;;;;;;11.00;9.00;;;;;19.87;55.46;99392.13;6237642;28;96969;-73
2022/06/18 02:19:42;;;;;;;;;10.00;10.00;;;;;19.80;55.91;99386.91;6220247;28;96751;-74
2022/06/18 02:22:49;;;;;;;;;10.00;9.00;;;;;19.74;55.66;99392.66;6246923;27;97374;-72
2022/06/18 02:25:54;;;;;;;;;12.40;11.00;;;;;19.70;55.99;99386.03;6236960;28;96719;-73
2022/06/18 02:29:00;;;;;;;;;10.00;9.50;;;;;19.64;56.41;99389.88;6226780;28;96492;-74
2022/06/18 02:32:08;;;;;;;;;10.00;9.00;;;;;19.61;56.20;99391.22;6236837;27;97055;-72
2022/06/18 02:35:13;;;;;;;;;9.75;9.00;;;;;19.65;56.12;99388.75;6238293;28;97480;-74
2022/06/18 02:38:20;;;;;;;;;10.00;9.75;;;;;19.68;56.23;99385.50;6222386;28;96945;-74
2022/06/18 02:41:24;;;;;;;;;9.80;9.40;;;;;19.67;56.35;99392.88;6237076;28;96595;-74
2022/06/18 02:44:29;;;;;;;;;9.40;8.40;;;;;19.64;56.49;99389.88;6223935;28;97592;-75
2022/06/18 02:47:34;;;;;;;;;10.00;9.40;;;;;19.65;56.61;99380.56;6238059;28;96378;-74
2022/06/18 02:50:41;;;;;;;;;11.00;11.00;;;;;19.69;55.97;99379.78;6238042;28;97550;-73
2022/06/18 02:53:45;;;;;;;;;9.00;9.00;;;;;19.73;56.20;99385.53;6233282;27;97064;-74
2022/06/18 02:56:50;;;;;;;;;11.00;10.40;;;;;19.76;55.87;99394.00;6227031;28;96708;-73
2022/06/18 02:59:55;;;;;;;;;8.40;8.00;;;;;19.71;56.37;99385.78;6226316;27;97462;-72
2022/06/18 03:02:58;;;;;;;;;12.00;11.00;;;;;19.68;56.58;99385.50;6217995;28;96722;-74
2022/06/18 03:06:02;;;;;;;;;9.00;8.50;;;;;19.68;56.72;99382.78;6252471;27;96662;-74
2022/06/18 03:09:06;;;;;;;;;8.20;8.20;;;;;19.74;56.31;99384.44;6244083;27;97454;-72
2022/06/18 03:12:08;;;;;;;;;10.00;9.00;;;;;19.76;56.22;99383.06;6227357;27;97174;-74
2022/06/18 03:15:16;;;;;;;;;9.00;9.00;;;;;19.80;55.83;99386.06;6232394;28;96357;-72
2022/06/18 03:18:22;;;;;;;;;9.00;8.00;;;;;19.85;55.50;99381.44;6252047;27;97445;-72
2022/06/18 03:21:32;;;;;;;;;8.75;8.75;;;;;19.93;55.61;99382.84;6240786;27;97092;-74
2022/06/18 03:24:35;;;;;;;;;10.60;10.00;;;;;19.86;55.48;99363.13;6239263;27;97410;-71
2022/06/18 03:27:40;;;;;;;;;8.00;8.00;;;;;20.05;55.25;99382.56;6244459;27;96771;-73
2022/06/18 03:30:45;;;;;;;;;9.25;8.25;;;;;20.08;54.84;99379.31;6243889;27;98104;-73
2022/06/18 03:33:50;;;;;;;;;9.00;8.00;;;;;20.14;54.82;99375.47;6236339;28;96798;-75
2022/06/18 03:36:54;;;;;;;;;8.00;8.00;;;;;20.11;54.65;99382.31;6242122;27;96901;-74
2022/06/18 03:39:58;;;;;;;;;9.00;9.00;;;;;20.19;54.73;99383.69;6242326;27;96988;-73
2022/06/18 03:43:02;;;;;;;;;8.00;8.00;;;;;20.23;54.66;99384.81;6232522;27;97163;-73
2022/06/18 03:46:11;;;;;;;;;10.00;9.00;;;;;20.29;54.47;99383.69;6250363;27;96563;-73
2022/06/18 03:49:25;;;;;;;;;9.00;8.60;;;;;20.33;54.60;99384.81;6245075;27;96732;-74
2022/06/18 03:52:30;;;;;;;;;7.40;7.00;;;;;20.31;54.18;99387.84;6259856;27;96671;-73
2022/06/18 03:55:34;;;;;;;;;9.00;8.00;;;;;20.37;54.26;99388.69;6237279;27;96715;-75
2022/06/18 03:58:37;;;;;;;;;8.00;8.00;;;;;20.41;53.67;99380.72;6243586;27;97686;-73
2022/06/18 04:01:44;;;;;;;;;10.00;9.20;;;;;20.36;54.02;99378.81;6233337;27;98832;-74
2022/06/18 04:04:48;;;;;;;;;9.00;9.00;;;;;20.37;54.03;99385.13;6253107;27;96718;-74
2022/06/18 04:07:54;;;;;;;;;8.60;8.00;;;;;20.25;53.67;99368.91;6240198;27;97565;-74
2022/06/18 04:11:30;;;;;;;;;10.00;9.00;;;;;20.46;54.16;99384.31;6242937;27;100359;-74
2022/06/18 04:14:35;;;;;;;;;9.00;9.00;;;;;20.50;53.98;99388.13;6246042;27;96848;-73
2022/06/18 04:17:50;;;;;;;;;8.00;6.20;;;;;20.59;53.11;99391.97;6220973;27;97054;-76
2022/06/18 04:20:54;;;;;;;;;10.00;9.00;;;;;20.67;53.40;99391.38;6258863;27;97194;-75
2022/06/18 04:24:00;;;;;;;;;9.00;8.00;;;;;20.70;53.41;99390.03;6247478;27;96756;-76
2022/06/18 04:27:05;;;;;;;;;7.00;7.00;;;;;20.70;52.91;99396.34;6226219;27;98447;-74
2022/06/18 04:30:11;;;;;;;;;9.75;8.00;;;;;20.81;52.94;99396.34;6245267;27;96770;-74
2022/06/18 04:33:30;;;;;;;;;10.00;9.00;;;;;20.82;53.09;99393.28;6247776;27;96908;-74
2022/06/18 04:36:48;;;;;;;;;7.60;7.00;;;;;20.87;52.81;99384.25;6230520;27;99552;-73
2022/06/18 04:40:08;;;;;;;;;9.00;8.00;;;;;20.99;52.25;99393.84;6242541;27;97561;-72
2022/06/18 04:43:40;;;;;;;;;8.20;8.00;;;;;21.13;52.50;99392.19;6238414;27;96654;-72
2022/06/18 04:46:45;;;;;;;;;9.80;8.80;;;;;21.24;52.19;99389.41;6239473;27;96461;-74
2022/06/18 04:49:51;;;;;;;;;9.40;9.00;;;;;21.37;52.00;99392.38;6247494;27;96694;-73
2022/06/18 04:52:55;;;;;;;;;7.00;7.00;;;;;21.47;51.30;99378.63;6230501;27;98136;-73
2022/06/18 04:55:59;;;;;;;;;7.75;7.75;;;;;21.64;51.59;99386.50;6230890;27;99138;-74
2022/06/18 04:59:02;;;;;;;;;10.50;9.00;;;;;21.77;51.12;99387.81;6229619;27;98298;-74
2022/06/18 05:02:14;;;;;;;;;8.60;8.00;;;;;21.70;50.22;99355.19;6229376;27;99545;-74
2022/06/18 05:05:33;;;;;;;;;7.00;7.00;;;;;22.02;49.94;99390.44;6245702;27;96700;-73
2022/06/18 05:08:57;;;;;;;;;7.75;7.75;;;;;22.13;50.15;99391.22;6243108;27;97842;-76
2022/06/18 05:12:13;;;;;;;;;8.00;8.00;;;;;22.28;50.15;99396.59;6240630;27;96654;-74
2022/06/18 05:15:41;;;;;;;;;9.00;8.00;;;;;22.38;49.70;99402.00;6263700;27;96869;-74
2022/06/18 05:18:47;;;;;;;;;9.00;8.00;;;;;22.50;50.11;99396.97;6224818;27;98867;-73
2022/06/18 05:21:52;;;;;;;;;7.25;7.25;;;;;22.56;49.21;99398.56;6260369;27;96799;-73
2022/06/18 05:24:56;;;;;;;;;8.00;8.00;;;;;22.71;48.77;99394.91;6255245;27;97527;-74
2022/06/18 05:28:03;;;;;;;;;7.00;7.00;;;;;22.84;47.78;99389.53;6240625;27;97047;-74
2022/06/18 05:31:09;;;;;;;;;7.00;7.00;;;;;22.93;48.11;99391.66;6229463;27;98457;-75
2022/06/18 05:34:13;;;;;;;;;9.00;7.00;;;;;23.04;48.00;99391.25;6246703;27;96905;-74
2022/06/18 05:37:22;;;;;;;;;8.67;7.67;;;;;23.23;47.62;99399.59;6229396;27;99523;-74
2022/06/18 05:40:26;;;;;;;;;7.00;6.00;;;;;23.38;47.12;99404.09;6228639;27;97835;-73
2022/06/18 05:43:29;;;;;;;;;6.20;6.20;;;;;23.45;47.08;99396.34;6229489;27;96711;-75
2022/06/18 05:46:33;;;;;;;;;7.00;6.40;;;;;23.57;46.89;99405.00;6245867;27;96619;-74
2022/06/18 05:49:37;;;;;;;;;7.00;6.00;;;;;23.61;46.60;99403.28;6240373;27;96693;-74
2022/06/18 05:52:42;;;;;;;;;6.80;6.80;;;;;23.56;46.53;99408.84;6237036;27;98317;-74
2022/06/18 05:56:12;;;;;;;;;8.00;7.00;;;;;23.71;46.66;99397.66;6259454;27;97566;-73
2022/06/18 05:59:41;;;;;;;;;7.00;6.20;;;;;23.87;46.96;99399.09;6243692;27;96733;-73
2022/06/18 06:02:45;;;;;;;;;6.00;6.00;;;;;23.92;45.71;99401.78;6244921;27;97086;-74
2022/06/18 06:05:49;;;;;;;;;7.00;6.00;;;;;23.96;45.35;99397.31;6261914;27;97367;-74
2022/06/18 06:08:54;;;;;;;;;7.00;6.00;;;;;24.17;45.35;99400.63;6245415;27;96564;-73
2022/06/18 06:11:57;;;;;;;;;5.60;5.00;;;;;24.33;44.72;99401.22;6245505;27;96634;-74
2022/06/18 06:15:01;;;;;;;;;6.00;6.00;;;;;24.36;43.52;99403.38;6245719;27;97438;-72
2022/06/18 06:18:05;;;;;;;;;6.00;6.00;;;;;24.27;42.69;99369.34;6240913;27;96931;-75
2022/06/18 06:21:09;;;;;;;;;6.00;5.00;;;;;24.43;43.22;99370.75;6244221;27;97580;-73
2022/06/18 06:24:14;;;;;;;;;7.00;5.00;;;;;24.75;41.76;99395.53;6243834;27;97366;-74
2022/06/18 06:27:18;;;;;;;;;5.00;5.00;;;;;24.75;41.40;99390.03;6262591;27;97533;-74
2022/06/18 06:30:23;;;;;;;;;6.00;5.50;;;;;24.89;40.59;99392.84;6262291;27;97220;-71
2022/06/18 06:33:27;;;;;;;;;6.33;6.33;;;;;24.94;40.86;99390.00;6227038;27;99742;-74
2022/06/18 06:36:30;;;;;;;;;7.40;7.00;;;;;24.95;41.06;99381.44;6230156;27;96770;-72
2022/06/18 06:39:38;;;;;;;;;5.40;5.40;;;;;25.21;40.36;99387.28;6263562;27;97488;-73
2022/06/18 06:42:44;;;;;;;;;8.20;7.00;;;;;25.24;39.58;99386.66;6263280;27;97300;-73
2022/06/18 06:45:48;;;;;;;;;6.00;6.00;;;;;25.18;39.37;99382.34;6255061;27;96476;-75
2022/06/18 06:48:52;;;;;;;;;6.00;6.00;;;;;25.30;39.01;99379.94;6255917;27;96732;-73
2022/06/18 06:51:55;;;;;;;;;7.00;6.00;;;;;25.39;39.48;99382.78;6236919;27;98820;-73
2022/06/18 06:58:18;;;;;;;;;5.40;5.40;;;;;25.68;37.83;99382.47;6218453;27;97126;-75
2022/06/18 07:01:22;;;;;;;;;6.50;6.00;;;;;25.91;37.80;99384.19;6251290;27;96679;-75
2022/06/18 07:04:26;;;;;;;;;6.00;5.00;;;;;26.08;37.16;99380.78;6254987;27;97410;-74
2022/06/18 07:07:30;;;;;;;;;5.00;4.67;;;;;26.30;37.45;99380.81;6262232;27;97494;-74
2022/06/18 07:10:36;;;;;;;;;5.00;5.00;;;;;25.91;37.41;99301.28;6226296;27;98393;-75
2022/06/18 07:13:39;;;;;;;;;4.00;4.00;;;;;26.62;37.35;99383.34;6252320;27;96905;-68
2022/06/18 07:16:48;;;;;;;;;6.00;5.00;;;;;26.88;35.95;99379.97;6236656;27;97092;-65
2022/06/18 07:19:52;;;;;;;;;5.00;5.00;;;;;26.99;35.41;99382.13;6243749;27;96844;-65
2022/06/18 07:22:56;;;;;;;;;6.00;6.00;;;;;27.07;35.34;99378.56;6254995;27;97515;-68
2022/06/18 07:26:01;;;;;;;;;4.00;4.00;;;;;27.24;35.06;99377.84;6261464;27;97123;-67
2022/06/18 07:29:04;;;;;;;;;6.00;5.00;;;;;27.41;34.15;99377.91;6261357;27;96724;-67
2022/06/18 07:32:13;;;;;;;;;4.00;4.00;;;;;27.37;35.31;99379.66;6260937;27;96398;-65
2022/06/18 07:35:21;;;;;;;;;5.00;4.00;;;;;27.44;34.49;99384.75;6260480;27;97002;-67
2022/06/18 07:38:25;;;;;;;;;6.00;5.00;;;;;27.56;34.37;99380.25;6261842;27;98115;-65
2022/06/18 07:41:34;;;;;;;;;4.00;4.00;;;;;27.47;33.77;99382.16;6263329;27;97002;-65
2022/06/18 07:44:37;;;;;;;;;6.00;5.40;;;;;27.51;33.85;99383.16;6248058;27;97392;-66
2022/06/18 07:47:41;;;;;;;;;4.25;4.25;;;;;27.85;35.10;99384.41;6265576;27;97478;-66
2022/06/18 07:50:46;;;;;;;;;6.00;6.00;;;;;28.12;33.64;99381.38;6247946;27;97720;-65
2022/06/18 07:53:50;;;;;;;;;5.00;5.00;;;;;28.20;33.35;99386.09;6248106;27;96801;-67
2022/06/18 07:56:54;;;;;;;;;6.25;5.50;;;;;28.35;33.60;99393.09;6266331;27;96651;-66
2022/06/18 07:59:58;;;;;;;;;6.00;5.40;;;;;28.34;33.13;99392.31;6264918;27;97855;-67
2022/06/18 08:03:01;;;;;;;;;5.60;5.00;;;;;28.49;33.57;99392.97;6266266;27;97155;-69
2022/06/18 08:06:05;;;;;;;;;5.80;4.20;;;;;28.83;33.13;99381.84;6233010;27;97742;-69
2022/06/18 08:09:08;;;;;;;;;5.00;5.00;;;;;28.83;31.04;99395.72;6247569;27;96685;-66
2022/06/18 08:12:13;;;;;;;;;3.60;3.60;;;;;28.79;31.30;99392.75;6266372;27;96992;-68
2022/06/18 08:15:17;;;;;;;;;4.33;4.00;;;;;28.80;31.48;99385.25;6230375;27;97779;-66
2022/06/18 08:18:21;;;;;;;;;5.00;5.00;;;;;29.20;32.10;99385.78;6247309;27;97770;-65
2022/06/18 08:21:36;;;;;;;;;5.00;5.00;;;;;29.49;30.92;99387.81;6240319;27;96835;-67
2022/06/18 08:24:40;;;;;;;;;3.00;3.00;;;;;29.31;29.91;99392.66;6247082;27;97424;-65
2022/06/18 08:27:47;;;;;;;;;4.00;4.00;;;;;29.48;30.85;99394.50;6247863;27;96751;-66
2022/06/18 08:30:50;;;;;;;;;4.00;4.00;;;;;29.44;30.21;99385.22;6265906;27;96688;-67
2022/06/18 08:33:53;;;;;;;;;3.00;3.00;;;;;29.53;30.42;99377.66;6230176;27;98333;-68
2022/06/18 08:36:57;;;;;;;;;5.00;5.00;;;;;29.61;30.63;99376.81;6265450;27;96538;-68
2022/06/18 08:40:01;;;;;;;;;4.00;4.00;;;;;29.81;29.91;99367.66;6265985;27;96937;-67
2022/06/18 08:43:29;;;;;;;;;5.00;4.40;;;;;30.11;29.32;99377.63;6265488;27;96531;-68
2022/06/18 08:46:40;;;;;;;;;3.60;3.60;;;;;30.27;28.91;99357.53;6265993;27;97541;-65
2022/06/18 08:49:59;;;;;;;;;4.00;4.00;;;;;30.42;28.91;99356.91;6253263;27;97015;-67
2022/06/18 08:53:34;;;;;;;;;3.00;3.00;;;;;30.31;27.67;99359.31;6251522;27;97502;-65
2022/06/18 08:56:45;;;;;;;;;3.75;3.75;;;;;30.53;28.59;99350.63;6265628;27;96645;-69
2022/06/18 09:00:02;;;;;;;;;5.00;4.00;;;;;30.73;26.55;99337.81;6246764;27;97533;-64
2022/06/18 09:03:13;;;;;;;;;3.00;3.00;;;;;30.52;26.77;99343.44;6265760;27;96638;-68
2022/06/18 09:06:33;;;;;;;;;5.00;4.00;;;;;30.53;26.89;99349.81;6246390;27;97050;-68
2022/06/18 09:09:45;;;;;;;;;3.00;3.00;;;;;30.98;26.96;99352.59;6265414;27;96517;-65
2022/06/18 09:12:56;;;;;;;;;3.20;3.00;;;;;30.90;26.31;99292.25;6246290;27;97763;-67
2022/06/18 09:16:08;;;;;;;;;4.00;3.00;;;;;31.51;25.03;99329.31;6265223;27;96600;-68
2022/06/18 09:19:16;;;;;;;;;4.00;4.00;;;;;31.80;24.80;99334.66;6247315;27;97431;-65
2022/06/18 09:22:21;;;;;;;;;5.00;4.00;;;;;32.02;25.94;99330.53;6229849;27;99468;-68
2022/06/18 09:25:27;;;;;;;;;3.20;3.20;;;;;32.25;25.59;99323.25;6247273;27;96707;-65
2022/06/18 09:28:36;;;;;;;;;4.00;4.00;;;;;32.31;25.57;99321.03;6247136;27;96707;-67
2022/06/18 09:31:47;;;;;;;;;3.00;3.00;;;;;32.32;24.52;99317.06;6263859;27;97891;-65
2022/06/18 09:34:57;;;;;;;;;3.00;3.00;;;;;32.50;23.77;99314.81;6265096;27;96625;-67
2022/06/18 09:38:07;;;;;;;;;3.00;3.00;;;;;32.50;23.98;99315.59;6247061;27;97960;-66
2022/06/18 09:41:18;;;;;;;;;3.40;3.40;;;;;32.38;22.56;99307.28;6264604;27;97348;-67
2022/06/18 09:44:29;;;;;;;;;2.60;2.60;;;;;32.52;23.00;99307.69;6235458;28;99724;-68
2022/06/18 09:47:38;;;;;;;;;1.75;1.75;;;;;32.64;22.40;99302.06;6262396;27;96603;-67
2022/06/18 09:50:46;;;;;;;;;4.40;4.00;;;;;32.86;23.44;99300.63;6265009;27;96418;-68
2022/06/18 09:53:51;;;;;;;;;3.00;3.00;;;;;33.02;23.64;99297.84;6246617;27;96380;-65
2022/06/18 09:57:00;;;;;;;;;3.00;3.00;;;;;32.82;23.20;99296.94;6246839;27;96660;-66
2022/06/18 10:00:08;;;;;;;;;3.00;2.00;;;;;32.81;23.10;99300.91;6245327;27;98914;-65
2022/06/18 10:06:52;;;;;;;;;3.00;3.00;;;;;33.14;23.08;99306.13;6251694;27;97789;-69
2022/06/18 10:06:55;;;;;;;;;2.75;2.75;;;;;33.42;23.10;99301.28;6251194;27;97578;-66
2022/06/18 10:10:17;;;;;;;;;3.00;3.00;;;;;33.60;22.21;99296.09;6246421;27;96489;-66
2022/06/18 10:13:26;;;;;;;;;3.00;3.00;;;;;33.84;22.11;99295.88;6246464;27;97412;-67
2022/06/18 10:16:39;;;;;;;;;4.33;4.00;;;;;34.19;22.81;99279.03;6264430;27;97427;-65
2022/06/18 10:20:00;;;;;;;;;2.00;2.00;;;;;34.32;21.62;99266.50;6264500;27;96771;-69
2022/06/18 10:23:23;;;;;;;;;4.00;3.00;;;;;34.52;21.48;99263.66;6264317;27;97451;-66
2022/06/18 10:26:43;;;;;;;;;2.00;2.00;;;;;34.59;21.29;99259.03;6263993;27;96670;-68
2022/06/18 10:29:54;;;;;;;;;2.40;2.40;;;;;34.78;20.80;99256.19;6263877;27;97365;-66
2022/06/18 10:33:06;;;;;;;;;3.00;3.00;;;;;34.84;21.32;99251.09;6263719;27;97784;-65
2022/06/18 10:36:17;;;;;;;;;2.00;2.00;;;;;34.82;21.39;99245.03;6263804;27;97093;-67
2022/06/18 10:39:24;;;;;;;;;4.00;4.00;;;;;35.05;21.46;99245.81;6245297;27;98404;-66
2022/06/18 10:42:47;;;;;;;;;2.00;2.00;;;;;34.86;20.12;99245.09;6263841;27;97519;-65
2022/06/18 10:45:56;;;;;;;;;3.00;3.00;;;;;34.61;19.51;99239.03;6245555;27;96393;-66
2022/06/18 10:49:03;;;;;;;;;3.00;3.00;;;;;34.42;19.85;99239.06;6249495;27;96630;-67
2022/06/18 10:52:17;;;;;;;;;3.00;3.00;;;;;34.14;20.91;99242.94;6245125;27;97754;-68
2022/06/18 10:55:22;;;;;;;;;3.00;3.00;;;;;34.35;21.12;99235.00;6263461;27;97516;-64
2022/06/18 10:58:26;;;;;;;;;3.00;3.00;;;;;34.72;21.22;99232.47;6263522;27;97429;-67
2022/06/18 11:01:32;;;;;;;;;3.00;2.00;;;;;35.03;20.16;99233.38;6243670;27;99898;-68
2022/06/18 11:04:36;;;;;;;;;2.20;2.20;;;;;35.23;19.23;99222.91;6256257;27;97451;-67
2022/06/18 11:07:41;;;;;;;;;3.00;3.00;;;;;35.43;19.69;99232.81;6243851;27;98366;-67
2022/06/18 11:10:52;;;;;;;;;3.00;3.00;;;;;35.77;19.15;99230.91;6244562;27;96682;-68
2022/06/18 11:13:56;;;;;;;;;3.20;3.00;;;;;35.73;18.72;99219.63;6263188;27;96724;-67
2022/06/18 11:16:59;;;;;;;;;3.60;3.40;;;;;35.89;19.87;99213.81;6262758;27;97483;-66
2022/06/18 11:20:17;;;;;;;;;2.40;2.00;;;;;36.08;19.29;99222.03;6227310;27;96998;-66
2022/06/18 11:23:22;;;;;;;;;3.00;2.75;;;;;35.94;19.20;99219.88;6244370;27;96746;-65
2022/06/18 11:26:28;;;;;;;;;4.00;4.00;;;;;35.31;19.12;99231.03;6243939;27;100011;-66
2022/06/18 11:29:34;;;;;;;;;3.00;3.00;;;;;35.01;20.06;99227.31;6244766;27;96896;-68
2022/06/18 11:32:43;;;;;;;;;4.00;3.00;;;;;35.29;21.10;99216.56;6227511;27;96678;-68
2022/06/18 11:35:50;;;;;;;;;3.00;3.00;;;;;35.80;20.95;99216.91;6262567;27;97560;-66
2022/06/18 11:38:57;;;;;;;;;3.00;3.00;;;;;35.89;19.95;99209.00;6262820;27;96580;-67
2022/06/18 11:42:09;;;;;;;;;4.00;4.00;;;;;35.91;20.83;99203.81;6243925;27;100015;-68
2022/06/18 11:45:31;;;;;;;;;2.60;2.60;;;;;35.67;19.77;99209.13;6243647;27;96678;-66
2022/06/18 11:48:41;;;;;;;;;3.40;3.40;;;;;35.42;19.49;99205.97;6262868;27;97554;-65
2022/06/18 11:51:55;;;;;;;;;3.00;3.00;;;;;34.94;19.67;99197.22;6262515;27;97412;-67
2022/06/18 11:55:05;;;;;;;;;3.00;3.00;;;;;34.94;20.60;99188.81;6262322;27;97405;-66
2022/06/18 11:58:17;;;;;;;;;3.80;3.00;;;;;34.68;20.39;99183.19;6262262;27;96578;-66
2022/06/18 12:01:33;;;;;;;;;5.00;5.00;;;;;34.71;21.04;99174.00;6262397;27;97434;-68
2022/06/18 12:04:42;;;;;;;;;3.00;3.00;;;;;34.62;20.78;99168.66;6262437;27;96927;-65
2022/06/18 12:07:51;;;;;;;;;4.40;4.00;;;;;34.83;21.67;99170.22;6243703;27;96651;-67
2022/06/18 12:11:03;;;;;;;;;4.00;4.00;;;;;34.78;20.52;99166.56;6229457;27;96817;-66
2022/06/18 12:14:13;;;;;;;;;3.00;3.00;;;;;34.76;20.61;99165.28;6241143;27;98386;-66
2022/06/18 12:17:23;;;;;;;;;3.00;3.00;;;;;34.77;20.46;99153.72;6243928;27;96551;-66
2022/06/18 12:20:40;;;;;;;;;2.60;2.60;;;;;34.77;20.70;99147.31;6262483;27;96655;-66
2022/06/18 12:23:56;;;;;;;;;4.00;4.00;;;;;34.75;20.50;99147.69;6262029;27;97498;-64
2022/06/18 12:27:09;;;;;;;;;3.00;2.40;;;;;34.50;20.75;99145.66;6244124;27;97170;-64
2022/06/18 12:30:18;;;;;;;;;4.00;4.00;;;;;34.32;21.33;99146.13;6247796;27;99529;-66
2022/06/18 12:33:31;;;;;;;;;4.00;4.00;;;;;34.39;21.43;99139.88;6266504;27;97537;-66
2022/06/18 12:36:44;;;;;;;;;5.00;4.00;;;;;34.55;22.11;99131.34;6246728;27;97774;-66
2022/06/18 12:39:55;;;;;;;;;3.40;3.00;;;;;34.77;21.64;99130.50;6266004;27;96476;-68
2022/06/18 12:43:07;;;;;;;;;3.20;3.20;;;;;34.94;22.32;99129.97;6248054;27;97564;-66
2022/06/18 12:46:17;;;;;;;;;4.00;4.00;;;;;34.80;21.46;99107.34;6266157;27;97438;-66
2022/06/18 12:49:29;;;;;;;;;3.00;3.00;;;;;34.69;20.99;99117.59;6266115;27;97741;-68
2022/06/18 12:52:42;;;;;;;;;3.00;3.00;;;;;34.55;20.63;99120.91;6247028;27;98461;-66
2022/06/18 12:55:53;;;;;;;;;2.40;2.40;;;;;34.66;21.13;99121.09;6247349;27;96702;-67
2022/06/18 12:59:07;;;;;;;;;4.00;3.00;;;;;34.44;20.82;99130.34;6265763;27;97396;-68
2022/06/18 13:02:18;;;;;;;;;3.00;3.00;;;;;34.25;21.57;99109.66;6246450;27;97509;-66
2022/06/18 13:05:39;;;;;;;;;3.00;3.00;;;;;34.02;21.71;99105.97;6264415;27;97436;-68
2022/06/18 13:08:56;;;;;;;;;5.00;4.00;;;;;33.99;21.95;99100.34;6264634;27;97371;-67
2022/06/18 13:12:17;;;;;;;;;3.50;3.00;;;;;33.70;21.54;99083.03;6246518;27;97821;-65
2022/06/18 13:15:33;;;;;;;;;3.00;3.00;;;;;33.46;22.64;99075.75;6265560;27;97494;-64
2022/06/18 13:18:42;;;;;;;;;2.80;2.80;;;;;33.49;22.35;99080.59;6246840;27;97442;-66
2022/06/18 13:21:47;;;;;;;;;4.00;3.00;;;;;33.46;22.55;99064.56;6265066;27;97462;-68
2022/06/18 13:28:23;;;;;;;;;3.33;3.33;;;;;33.67;22.38;99071.75;6246368;27;97094;-65
2022/06/18 13:31:38;;;;;;;;;3.00;3.00;;;;;33.68;22.08;99065.81;6246095;27;98480;-65
2022/06/18 13:34:49;;;;;;;;;3.00;3.00;;;;;33.84;23.00;99071.28;6247034;27;97491;-64
2022/06/18 13:38:05;;;;;;;;;3.00;3.00;;;;;33.67;22.13;99064.22;6264542;27;96720;-65
2022/06/18 13:41:17;;;;;;;;;3.00;3.00;;;;;33.68;22.51;99051.00;6264509;27;97538;-66
2022/06/18 13:44:34;;;;;;;;;4.00;4.00;;;;;33.47;22.46;99057.00;6264911;27;96662;-66
2022/06/18 13:47:49;;;;;;;;;3.00;2.20;;;;;33.48;22.62;99058.59;6264890;27;97530;-68
2022/06/18 13:50:54;;;;;;;;;5.00;3.00;;;;;33.58;23.10;99052.41;6246791;27;96974;-65
2022/06/18 13:54:10;;;;;;;;;3.25;3.25;;;;;33.72;22.72;99055.47;6264870;27;97723;-65
2022/06/18 13:57:16;;;;;;;;;5.00;4.00;;;;;33.92;23.64;99045.06;6246330;27;97052;-68
2022/06/18 14:00:23;;;;;;;;;3.40;3.00;;;;;34.10;22.97;99037.78;6263716;27;97483;-64
2022/06/18 14:03:28;;;;;;;;;3.20;3.00;;;;;34.12;23.18;99034.59;6246400;27;98563;-64
2022/06/18 14:06:32;;;;;;;;;3.80;3.00;;;;;34.07;22.92;99032.94;6239233;27;96802;-66
2022/06/18 14:09:45;;;;;;;;;4.00;3.00;;;;;34.02;23.07;99027.66;6263763;27;96551;-65
2022/06/18 14:12:54;;;;;;;;;4.00;3.75;;;;;34.03;23.56;99023.69;6264391;27;97514;-64
2022/06/18 14:16:01;;;;;;;;;4.00;4.00;;;;;34.08;23.10;99023.38;6264201;27;97035;-66
2022/06/18 14:19:14;;;;;;;;;4.00;3.00;;;;;33.76;22.95;99022.00;6246384;27;97047;-69
2022/06/18 14:22:24;;;;;;;;;5.00;4.40;;;;;33.57;23.42;99017.25;6264355;27;96568;-66
2022/06/18 14:25:28;;;;;;;;;3.20;3.20;;;;;33.16;24.48;99010.47;6264606;27;96325;-68
2022/06/18 14:28:35;;;;;;;;;4.00;3.00;;;;;32.88;24.48;99007.88;6263871;27;96411;-67
2022/06/18 14:31:52;;;;;;;;;2.80;2.80;;;;;33.14;24.17;99009.16;6245409;27;97434;-67
2022/06/18 14:35:11;;;;;;;;;4.00;4.00;;;;;33.18;24.12;99007.31;6263378;27;97013;-64
2022/06/18 14:38:15;;;;;;;;;3.00;3.00;;;;;33.11;23.82;98999.53;6263487;27;96496;-67
2022/06/18 14:41:37;;;;;;;;;4.00;3.00;;;;;33.18;24.31;99002.53;6251480;27;96535;-67
2022/06/18 14:45:14;;;;;;;;;3.00;3.00;;;;;33.16;23.52;98995.69;6232774;27;97786;-69
2022/06/18 14:48:45;;;;;;;;;3.00;3.00;;;;;33.07;24.18;98988.31;6263741;27;96564;-68
2022/06/18 14:52:26;;;;;;;;;3.00;3.00;;;;;33.01;24.50;98991.75;6262848;27;96660;-64
2022/06/18 14:55:45;;;;;;;;;3.40;3.40;;;;;33.09;24.48;98982.34;6243903;27;96816;-67
2022/06/18 14:59:19;;;;;;;;;3.60;3.60;;;;;33.08;24.06;98987.13;6244760;27;96749;-67